sensor_id;sensor_type;location;lat;lon;timestamp;temperature;humidity
34877;DHT22;21086;44.780;17.194;2024-03-06T00:00:13;8.80;99.90
34877;DHT22;21086;44.780;17.194;2024-03-06T00:02:40;9.00;99.90
34877;DHT22;21086;44.780;17.194;2024-03-06T00:05:07;8.90;99.90
34877;DHT22;21086;44.780;17.194;2024-03-06T00:07:35;8.80;99.90
34877;DHT22;21086;44.780;17.194;2024-03-06T00:10:03;8.80;99.90
34877;DHT22;21086;44.780;17.194;2024-03-06T00:12:32;8.80;99.90
34877;DHT22;21086;44.780;17.194;2024-03-06T00:14:59;8.80;99.90
34877;DHT22;21086;44.780;17.194;2024-03-06T00:17:26;8.80;99.90
34877;DHT22;21086;44.780;17.194;2024-03-06T00:19:54;8.80;99.90
34877;DHT22;21086;44.780;17.194;2024-03-06T00:22:21;8.60;99.90
34877;DHT22;21086;44.780;17.194;2024-03-06T00:24:50;8.60;99.90
34877;DHT22;21086;44.780;17.194;2024-03-06T00:27:18;8.60;99.90
34877;DHT22;21086;44.780;17.194;2024-03-06T00:29:45;8.50;99.90
34877;DHT22;21086;44.780;17.194;2024-03-06T00:32:12;8.50;99.90
34877;DHT22;21086;44.780;17.194;2024-03-06T00:34:39;8.50;99.90
34877;DHT22;21086;44.780;17.194;2024-03-06T00:37:07;8.50;99.90
34877;DHT22;21086;44.780;17.194;2024-03-06T00:39:34;8.60;99.90
34877;DHT22;21086;44.780;17.194;2024-03-06T00:42:00;8.50;99.90
34877;DHT22;21086;44.780;17.194;2024-03-06T00:44:28;8.50;99.90
34877;DHT22;21086;44.780;17.194;2024-03-06T00:46:55;8.60;99.90
34877;DHT22;21086;44.780;17.194;2024-03-06T00:49:21;8.60;99.90
34877;DHT22;21086;44.780;17.194;2024-03-06T00:51:48;8.60;99.90
34877;DHT22;21086;44.780;17.194;2024-03-06T00:54:16;8.70;99.90
34877;DHT22;21086;44.780;17.194;2024-03-06T00:56:44;8.70;99.90
34877;DHT22;21086;44.780;17.194;2024-03-06T00:59:11;8.70;99.90
34877;DHT22;21086;44.780;17.194;2024-03-06T01:01:38;8.70;99.90
34877;DHT22;21086;44.780;17.194;2024-03-06T01:04:05;8.70;99.90
34877;DHT22;21086;44.780;17.194;2024-03-06T01:06:33;8.70;99.90
34877;DHT22;21086;44.780;17.194;2024-03-06T01:09:00;8.70;99.90
34877;DHT22;21086;44.780;17.194;2024-03-06T01:11:27;8.80;99.90
34877;DHT22;21086;44.780;17.194;2024-03-06T01:13:54;10.00;99.90
34877;DHT22;21086;44.780;17.194;2024-03-06T01:16:21;8.70;99.90
34877;DHT22;21086;44.780;17.194;2024-03-06T01:18:48;8.80;99.90
34877;DHT22;21086;44.780;17.194;2024-03-06T01:21:15;8.90;99.90
34877;DHT22;21086;44.780;17.194;2024-03-06T01:23:42;8.80;99.90
34877;DHT22;21086;44.780;17.194;2024-03-06T01:26:10;8.60;99.90
34877;DHT22;21086;44.780;17.194;2024-03-06T01:28:38;8.60;99.90
34877;DHT22;21086;44.780;17.194;2024-03-06T01:31:06;8.60;99.90
34877;DHT22;21086;44.780;17.194;2024-03-06T01:33:34;8.60;99.90
34877;DHT22;21086;44.780;17.194;2024-03-06T01:36:01;8.60;99.90
34877;DHT22;21086;44.780;17.194;2024-03-06T01:38:28;8.60;99.90
34877;DHT22;21086;44.780;17.194;2024-03-06T01:40:55;8.50;99.90
34877;DHT22;21086;44.780;17.194;2024-03-06T01:43:24;8.50;99.90
34877;DHT22;21086;44.780;17.194;2024-03-06T01:45:53;8.50;99.90
34877;DHT22;21086;44.780;17.194;2024-03-06T01:48:23;8.40;99.90
34877;DHT22;21086;44.780;17.194;2024-03-06T01:50:55;8.40;99.90
34877;DHT22;21086;44.780;17.194;2024-03-06T01:53:23;8.30;99.90
34877;DHT22;21086;44.780;17.194;2024-03-06T01:55:51;8.20;99.90
34877;DHT22;21086;44.780;17.194;2024-03-06T01:58:19;8.20;99.90
34877;DHT22;21086;44.780;17.194;2024-03-06T02:00:49;8.10;99.90
34877;DHT22;21086;44.780;17.194;2024-03-06T02:03:18;8.00;99.90
34877;DHT22;21086;44.780;17.194;2024-03-06T02:05:48;8.00;99.90
34877;DHT22;21086;44.780;17.194;2024-03-06T02:08:16;8.00;99.90
34877;DHT22;21086;44.780;17.194;2024-03-06T02:10:45;8.00;99.90
34877;DHT22;21086;44.780;17.194;2024-03-06T02:13:15;8.00;99.90
34877;DHT22;21086;44.780;17.194;2024-03-06T02:15:44;8.00;99.90
34877;DHT22;21086;44.780;17.194;2024-03-06T02:18:12;8.00;99.90
34877;DHT22;21086;44.780;17.194;2024-03-06T02:20:39;7.90;99.90
34877;DHT22;21086;44.780;17.194;2024-03-06T02:23:09;7.80;99.90
34877;DHT22;21086;44.780;17.194;2024-03-06T02:25:36;7.80;99.90
34877;DHT22;21086;44.780;17.194;2024-03-06T02:28:03;7.80;99.90
34877;DHT22;21086;44.780;17.194;2024-03-06T02:30:33;7.80;99.90
34877;DHT22;21086;44.780;17.194;2024-03-06T02:33:04;7.80;99.90
34877;DHT22;21086;44.780;17.194;2024-03-06T02:35:32;7.80;99.90
34877;DHT22;21086;44.780;17.194;2024-03-06T02:38:00;7.80;99.90
34877;DHT22;21086;44.780;17.194;2024-03-06T02:40:27;7.80;99.90
34877;DHT22;21086;44.780;17.194;2024-03-06T02:42:55;7.80;99.90
34877;DHT22;21086;44.780;17.194;2024-03-06T02:45:22;7.80;99.90
34877;DHT22;21086;44.780;17.194;2024-03-06T02:47:49;7.80;99.90
34877;DHT22;21086;44.780;17.194;2024-03-06T02:50:16;7.80;99.90
34877;DHT22;21086;44.780;17.194;2024-03-06T02:52:43;7.70;99.90
34877;DHT22;21086;44.780;17.194;2024-03-06T02:55:11;7.70;99.90
34877;DHT22;21086;44.780;17.194;2024-03-06T02:57:38;7.70;99.90
34877;DHT22;21086;44.780;17.194;2024-03-06T03:00:06;7.60;99.90
34877;DHT22;21086;44.780;17.194;2024-03-06T03:02:35;7.60;99.90
34877;DHT22;21086;44.780;17.194;2024-03-06T03:05:02;7.60;99.90
34877;DHT22;21086;44.780;17.194;2024-03-06T03:07:30;7.60;99.90
34877;DHT22;21086;44.780;17.194;2024-03-06T03:09:57;7.60;99.90
34877;DHT22;21086;44.780;17.194;2024-03-06T03:12:24;7.50;99.90
34877;DHT22;21086;44.780;17.194;2024-03-06T03:14:51;7.60;99.90
34877;DHT22;21086;44.780;17.194;2024-03-06T03:17:19;7.60;99.90
34877;DHT22;21086;44.780;17.194;2024-03-06T03:19:49;7.50;99.90
34877;DHT22;21086;44.780;17.194;2024-03-06T03:22:16;7.50;99.90
34877;DHT22;21086;44.780;17.194;2024-03-06T03:24:43;7.50;99.90
34877;DHT22;21086;44.780;17.194;2024-03-06T03:27:10;7.50;99.90
34877;DHT22;21086;44.780;17.194;2024-03-06T03:29:37;7.50;99.90
34877;DHT22;21086;44.780;17.194;2024-03-06T03:32:04;7.50;99.90
34877;DHT22;21086;44.780;17.194;2024-03-06T03:34:34;7.50;99.90
34877;DHT22;21086;44.780;17.194;2024-03-06T03:37:01;7.60;99.90
34877;DHT22;21086;44.780;17.194;2024-03-06T03:39:29;7.60;99.90
34877;DHT22;21086;44.780;17.194;2024-03-06T03:41:56;7.60;99.90
34877;DHT22;21086;44.780;17.194;2024-03-06T03:44:23;7.50;99.90
34877;DHT22;21086;44.780;17.194;2024-03-06T03:46:50;7.50;99.90
34877;DHT22;21086;44.780;17.194;2024-03-06T03:49:17;7.50;99.90
34877;DHT22;21086;44.780;17.194;2024-03-06T03:51:45;7.50;99.90
34877;DHT22;21086;44.780;17.194;2024-03-06T03:54:12;7.50;99.90
34877;DHT22;21086;44.780;17.194;2024-03-06T03:56:39;7.40;99.90
34877;DHT22;21086;44.780;17.194;2024-03-06T03:59:06;7.30;99.90
34877;DHT22;21086;44.780;17.194;2024-03-06T04:01:34;7.30;99.90
34877;DHT22;21086;44.780;17.194;2024-03-06T04:04:01;7.30;99.90
34877;DHT22;21086;44.780;17.194;2024-03-06T04:06:28;7.20;99.90
34877;DHT22;21086;44.780;17.194;2024-03-06T04:08:55;7.20;99.90
34877;DHT22;21086;44.780;17.194;2024-03-06T04:11:22;7.30;99.90
34877;DHT22;21086;44.780;17.194;2024-03-06T04:13:50;7.20;99.90
34877;DHT22;21086;44.780;17.194;2024-03-06T04:16:17;7.20;99.90
34877;DHT22;21086;44.780;17.194;2024-03-06T04:18:46;7.20;99.90
34877;DHT22;21086;44.780;17.194;2024-03-06T04:21:13;7.10;99.90
34877;DHT22;21086;44.780;17.194;2024-03-06T04:23:43;7.10;99.90
34877;DHT22;21086;44.780;17.194;2024-03-06T04:26:11;7.10;99.90
34877;DHT22;21086;44.780;17.194;2024-03-06T04:28:38;7.10;99.90
34877;DHT22;21086;44.780;17.194;2024-03-06T04:31:05;7.10;99.90
34877;DHT22;21086;44.780;17.194;2024-03-06T04:33:33;7.10;99.90
34877;DHT22;21086;44.780;17.194;2024-03-06T04:36:03;7.00;99.90
34877;DHT22;21086;44.780;17.194;2024-03-06T04:38:34;7.00;99.90
34877;DHT22;21086;44.780;17.194;2024-03-06T04:41:01;7.00;99.90
34877;DHT22;21086;44.780;17.194;2024-03-06T04:43:28;7.00;99.90
34877;DHT22;21086;44.780;17.194;2024-03-06T04:45:55;6.90;99.90
34877;DHT22;21086;44.780;17.194;2024-03-06T04:48:24;6.90;99.90
34877;DHT22;21086;44.780;17.194;2024-03-06T04:50:51;6.90;99.90
34877;DHT22;21086;44.780;17.194;2024-03-06T04:53:18;6.90;99.90
34877;DHT22;21086;44.780;17.194;2024-03-06T04:55:47;6.90;99.90
34877;DHT22;21086;44.780;17.194;2024-03-06T04:58:14;6.80;99.90
34877;DHT22;21086;44.780;17.194;2024-03-06T05:00:41;6.80;99.90
34877;DHT22;21086;44.780;17.194;2024-03-06T05:03:08;6.70;99.90
34877;DHT22;21086;44.780;17.194;2024-03-06T05:05:52;6.70;99.90
34877;DHT22;21086;44.780;17.194;2024-03-06T05:08:37;6.70;99.90
34877;DHT22;21086;44.780;17.194;2024-03-06T05:11:22;6.70;99.90
34877;DHT22;21086;44.780;17.194;2024-03-06T05:14:08;6.70;99.90
34877;DHT22;21086;44.780;17.194;2024-03-06T05:16:52;6.70;99.90
34877;DHT22;21086;44.780;17.194;2024-03-06T05:19:37;6.70;99.90
34877;DHT22;21086;44.780;17.194;2024-03-06T05:22:22;6.80;99.90
34877;DHT22;21086;44.780;17.194;2024-03-06T05:25:07;7.00;99.90
34877;DHT22;21086;44.780;17.194;2024-03-06T05:27:51;7.10;99.90
34877;DHT22;21086;44.780;17.194;2024-03-06T05:30:36;7.00;99.90
34877;DHT22;21086;44.780;17.194;2024-03-06T05:33:20;6.90;99.90
34877;DHT22;21086;44.780;17.194;2024-03-06T05:36:06;7.00;99.90
34877;DHT22;21086;44.780;17.194;2024-03-06T05:38:50;7.00;99.90
34877;DHT22;21086;44.780;17.194;2024-03-06T05:41:34;7.10;99.90
34877;DHT22;21086;44.780;17.194;2024-03-06T05:44:20;7.20;99.90
34877;DHT22;21086;44.780;17.194;2024-03-06T05:47:05;7.30;99.90
34877;DHT22;21086;44.780;17.194;2024-03-06T05:49:50;7.20;99.90
34877;DHT22;21086;44.780;17.194;2024-03-06T05:52:35;7.30;99.90
34877;DHT22;21086;44.780;17.194;2024-03-06T05:55:20;7.30;99.90
34877;DHT22;21086;44.780;17.194;2024-03-06T05:58:04;7.40;99.90
34877;DHT22;21086;44.780;17.194;2024-03-06T06:00:39;7.50;99.90
34877;DHT22;21086;44.780;17.194;2024-03-06T06:03:07;7.60;99.90
34877;DHT22;21086;44.780;17.194;2024-03-06T06:05:35;7.70;99.90
34877;DHT22;21086;44.780;17.194;2024-03-06T06:08:04;7.80;99.90
34877;DHT22;21086;44.780;17.194;2024-03-06T06:10:32;7.80;99.90
34877;DHT22;21086;44.780;17.194;2024-03-06T06:12:59;7.90;99.90
34877;DHT22;21086;44.780;17.194;2024-03-06T06:15:26;7.90;99.90
34877;DHT22;21086;44.780;17.194;2024-03-06T06:17:53;8.00;99.90
34877;DHT22;21086;44.780;17.194;2024-03-06T06:20:21;8.10;99.90
34877;DHT22;21086;44.780;17.194;2024-03-06T06:22:48;8.20;99.90
34877;DHT22;21086;44.780;17.194;2024-03-06T06:25:15;8.30;99.90
34877;DHT22;21086;44.780;17.194;2024-03-06T06:27:43;8.30;99.90
34877;DHT22;21086;44.780;17.194;2024-03-06T06:30:10;8.40;99.90
34877;DHT22;21086;44.780;17.194;2024-03-06T06:32:40;8.60;99.90
34877;DHT22;21086;44.780;17.194;2024-03-06T06:35:09;8.70;99.90
34877;DHT22;21086;44.780;17.194;2024-03-06T06:37:37;8.70;99.90
34877;DHT22;21086;44.780;17.194;2024-03-06T06:40:06;8.90;99.90
34877;DHT22;21086;44.780;17.194;2024-03-06T06:42:37;9.00;99.90
34877;DHT22;21086;44.780;17.194;2024-03-06T06:45:05;9.10;99.90
34877;DHT22;21086;44.780;17.194;2024-03-06T06:47:34;9.20;99.90
34877;DHT22;21086;44.780;17.194;2024-03-06T06:50:01;9.30;99.90
34877;DHT22;21086;44.780;17.194;2024-03-06T06:52:33;9.50;99.90
34877;DHT22;21086;44.780;17.194;2024-03-06T06:55:01;9.60;99.90
34877;DHT22;21086;44.780;17.194;2024-03-06T06:57:29;9.70;99.90
34877;DHT22;21086;44.780;17.194;2024-03-06T06:59:56;9.80;99.90
34877;DHT22;21086;44.780;17.194;2024-03-06T07:02:23;9.90;99.90
34877;DHT22;21086;44.780;17.194;2024-03-06T07:04:52;10.00;99.90
34877;DHT22;21086;44.780;17.194;2024-03-06T07:07:19;10.10;99.90
34877;DHT22;21086;44.780;17.194;2024-03-06T07:09:46;10.20;99.90
34877;DHT22;21086;44.780;17.194;2024-03-06T07:12:13;10.20;99.90
34877;DHT22;21086;44.780;17.194;2024-03-06T07:14:40;10.30;99.90
34877;DHT22;21086;44.780;17.194;2024-03-06T07:17:07;10.40;99.90
34877;DHT22;21086;44.780;17.194;2024-03-06T07:19:34;10.50;99.90
34877;DHT22;21086;44.780;17.194;2024-03-06T07:22:01;10.60;99.90
34877;DHT22;21086;44.780;17.194;2024-03-06T07:24:28;10.60;99.90
34877;DHT22;21086;44.780;17.194;2024-03-06T07:26:55;10.30;99.90
34877;DHT22;21086;44.780;17.194;2024-03-06T07:29:22;10.90;99.90
34877;DHT22;21086;44.780;17.194;2024-03-06T07:31:49;11.10;99.90
34877;DHT22;21086;44.780;17.194;2024-03-06T07:34:17;11.20;99.90
34877;DHT22;21086;44.780;17.194;2024-03-06T07:36:44;11.30;99.90
34877;DHT22;21086;44.780;17.194;2024-03-06T07:39:15;11.40;99.90
34877;DHT22;21086;44.780;17.194;2024-03-06T07:41:43;11.50;99.90
34877;DHT22;21086;44.780;17.194;2024-03-06T07:44:10;11.60;99.90
34877;DHT22;21086;44.780;17.194;2024-03-06T07:46:37;11.70;99.90
34877;DHT22;21086;44.780;17.194;2024-03-06T07:49:04;11.70;99.90
34877;DHT22;21086;44.780;17.194;2024-03-06T07:51:32;11.80;99.90
34877;DHT22;21086;44.780;17.194;2024-03-06T07:54:00;11.90;99.90
34877;DHT22;21086;44.780;17.194;2024-03-06T07:56:27;12.00;99.90
34877;DHT22;21086;44.780;17.194;2024-03-06T07:58:55;12.00;99.90
34877;DHT22;21086;44.780;17.194;2024-03-06T08:01:23;11.90;99.90
34877;DHT22;21086;44.780;17.194;2024-03-06T08:03:50;12.00;99.90
34877;DHT22;21086;44.780;17.194;2024-03-06T08:06:18;12.20;99.90
34877;DHT22;21086;44.780;17.194;2024-03-06T08:08:45;12.40;99.90
34877;DHT22;21086;44.780;17.194;2024-03-06T08:11:12;12.50;99.90
34877;DHT22;21086;44.780;17.194;2024-03-06T08:13:40;12.60;99.90
34877;DHT22;21086;44.780;17.194;2024-03-06T08:16:08;12.80;99.90
34877;DHT22;21086;44.780;17.194;2024-03-06T08:18:36;12.80;99.90
34877;DHT22;21086;44.780;17.194;2024-03-06T08:21:04;12.80;99.90
34877;DHT22;21086;44.780;17.194;2024-03-06T08:23:32;13.00;99.90
34877;DHT22;21086;44.780;17.194;2024-03-06T08:26:00;13.10;99.90
34877;DHT22;21086;44.780;17.194;2024-03-06T08:28:27;13.20;99.90
34877;DHT22;21086;44.780;17.194;2024-03-06T08:30:54;13.40;99.90
34877;DHT22;21086;44.780;17.194;2024-03-06T08:33:21;13.30;99.90
34877;DHT22;21086;44.780;17.194;2024-03-06T08:35:52;13.50;99.90
34877;DHT22;21086;44.780;17.194;2024-03-06T08:38:19;13.80;99.90
34877;DHT22;21086;44.780;17.194;2024-03-06T08:40:46;14.10;99.90
34877;DHT22;21086;44.780;17.194;2024-03-06T08:43:14;14.30;99.90
34877;DHT22;21086;44.780;17.194;2024-03-06T08:45:43;14.50;99.90
34877;DHT22;21086;44.780;17.194;2024-03-06T08:48:10;14.80;99.90
34877;DHT22;21086;44.780;17.194;2024-03-06T08:50:39;14.90;99.90
34877;DHT22;21086;44.780;17.194;2024-03-06T08:53:06;15.10;99.90
34877;DHT22;21086;44.780;17.194;2024-03-06T08:55:34;15.10;99.90
34877;DHT22;21086;44.780;17.194;2024-03-06T08:58:01;15.30;99.90
34877;DHT22;21086;44.780;17.194;2024-03-06T09:00:28;15.50;99.90
34877;DHT22;21086;44.780;17.194;2024-03-06T09:02:55;15.60;99.90
34877;DHT22;21086;44.780;17.194;2024-03-06T09:05:22;15.60;99.90
34877;DHT22;21086;44.780;17.194;2024-03-06T09:07:50;15.70;99.90
34877;DHT22;21086;44.780;17.194;2024-03-06T09:10:17;16.00;99.90
34877;DHT22;21086;44.780;17.194;2024-03-06T09:12:46;16.20;99.90
34877;DHT22;21086;44.780;17.194;2024-03-06T09:15:14;16.40;99.90
34877;DHT22;21086;44.780;17.194;2024-03-06T09:17:43;16.70;99.90
34877;DHT22;21086;44.780;17.194;2024-03-06T09:20:11;17.00;99.90
34877;DHT22;21086;44.780;17.194;2024-03-06T09:22:41;17.20;99.90
34877;DHT22;21086;44.780;17.194;2024-03-06T09:25:09;17.40;99.90
34877;DHT22;21086;44.780;17.194;2024-03-06T09:27:37;17.60;99.90
34877;DHT22;21086;44.780;17.194;2024-03-06T09:30:04;17.80;99.90
34877;DHT22;21086;44.780;17.194;2024-03-06T09:32:31;17.90;99.90
34877;DHT22;21086;44.780;17.194;2024-03-06T09:34:59;18.30;99.90
34877;DHT22;21086;44.780;17.194;2024-03-06T09:37:27;18.40;99.90
34877;DHT22;21086;44.780;17.194;2024-03-06T09:39:55;18.60;99.90
34877;DHT22;21086;44.780;17.194;2024-03-06T09:42:23;18.60;99.90
34877;DHT22;21086;44.780;17.194;2024-03-06T09:44:51;18.70;99.90
34877;DHT22;21086;44.780;17.194;2024-03-06T09:47:21;18.90;99.90
34877;DHT22;21086;44.780;17.194;2024-03-06T09:49:52;19.30;99.90
34877;DHT22;21086;44.780;17.194;2024-03-06T09:52:24;19.50;99.90
34877;DHT22;21086;44.780;17.194;2024-03-06T09:54:57;19.60;99.90
34877;DHT22;21086;44.780;17.194;2024-03-06T09:57:25;19.80;99.90
34877;DHT22;21086;44.780;17.194;2024-03-06T09:59:52;20.10;99.90
34877;DHT22;21086;44.780;17.194;2024-03-06T10:02:36;20.40;99.90
34877;DHT22;21086;44.780;17.194;2024-03-06T10:05:05;20.50;99.90
34877;DHT22;21086;44.780;17.194;2024-03-06T10:07:33;20.60;99.90
34877;DHT22;21086;44.780;17.194;2024-03-06T10:10:00;20.70;99.90
34877;DHT22;21086;44.780;17.194;2024-03-06T10:12:28;20.80;99.90
34877;DHT22;21086;44.780;17.194;2024-03-06T10:14:56;21.20;99.90
34877;DHT22;21086;44.780;17.194;2024-03-06T10:17:24;21.40;99.90
34877;DHT22;21086;44.780;17.194;2024-03-06T10:19:54;21.60;99.90
34877;DHT22;21086;44.780;17.194;2024-03-06T10:22:23;21.80;99.90
34877;DHT22;21086;44.780;17.194;2024-03-06T10:24:55;22.20;99.90
34877;DHT22;21086;44.780;17.194;2024-03-06T10:27:23;22.30;99.90
34877;DHT22;21086;44.780;17.194;2024-03-06T10:30:04;22.30;99.90
34877;DHT22;21086;44.780;17.194;2024-03-06T10:32:33;22.40;99.90
34877;DHT22;21086;44.780;17.194;2024-03-06T10:35:00;22.70;99.90
34877;DHT22;21086;44.780;17.194;2024-03-06T10:37:29;22.80;99.90
34877;DHT22;21086;44.780;17.194;2024-03-06T10:39:58;22.70;99.90
34877;DHT22;21086;44.780;17.194;2024-03-06T10:42:33;23.20;99.90
34877;DHT22;21086;44.780;17.194;2024-03-06T10:45:03;23.20;99.90
34877;DHT22;21086;44.780;17.194;2024-03-06T10:47:31;23.60;99.90
34877;DHT22;21086;44.780;17.194;2024-03-06T10:50:00;23.50;99.90
34877;DHT22;21086;44.780;17.194;2024-03-06T10:52:33;24.00;99.90
34877;DHT22;21086;44.780;17.194;2024-03-06T10:55:02;24.60;99.90
34877;DHT22;21086;44.780;17.194;2024-03-06T10:57:30;25.20;99.90
34877;DHT22;21086;44.780;17.194;2024-03-06T10:59:59;25.20;99.90
34877;DHT22;21086;44.780;17.194;2024-03-06T11:02:31;25.60;99.90
34877;DHT22;21086;44.780;17.194;2024-03-06T11:04:59;25.70;99.90
34877;DHT22;21086;44.780;17.194;2024-03-06T11:07:27;25.80;99.90
34877;DHT22;21086;44.780;17.194;2024-03-06T11:09:58;25.90;99.90
34877;DHT22;21086;44.780;17.194;2024-03-06T11:12:38;26.40;99.90
34877;DHT22;21086;44.780;17.194;2024-03-06T11:15:10;26.80;99.90
34877;DHT22;21086;44.780;17.194;2024-03-06T11:17:40;26.70;99.90
34877;DHT22;21086;44.780;17.194;2024-03-06T11:20:18;27.10;99.90
34877;DHT22;21086;44.780;17.194;2024-03-06T11:28:37;27.70;99.90
34877;DHT22;21086;44.780;17.194;2024-03-06T11:31:07;28.00;99.90
34877;DHT22;21086;44.780;17.194;2024-03-06T11:33:43;28.30;99.90
34877;DHT22;21086;44.780;17.194;2024-03-06T11:39:05;29.00;99.90
34877;DHT22;21086;44.780;17.194;2024-03-06T11:44:18;28.90;99.90
34877;DHT22;21086;44.780;17.194;2024-03-06T11:46:49;28.80;99.90
34877;DHT22;21086;44.780;17.194;2024-03-06T11:49:22;29.00;99.90
34877;DHT22;21086;44.780;17.194;2024-03-06T11:51:52;28.70;99.90
34877;DHT22;21086;44.780;17.194;2024-03-06T11:54:19;29.20;99.90
34877;DHT22;21086;44.780;17.194;2024-03-06T11:56:51;29.00;99.90
34877;DHT22;21086;44.780;17.194;2024-03-06T11:59:25;28.70;99.90
34877;DHT22;21086;44.780;17.194;2024-03-06T12:01:57;27.90;99.90
34877;DHT22;21086;44.780;17.194;2024-03-06T12:04:25;28.10;99.90
34877;DHT22;21086;44.780;17.194;2024-03-06T12:06:52;28.20;99.90
34877;DHT22;21086;44.780;17.194;2024-03-06T12:09:19;28.40;99.90
34877;DHT22;21086;44.780;17.194;2024-03-06T12:11:46;28.00;99.90
34877;DHT22;21086;44.780;17.194;2024-03-06T12:14:16;28.00;99.90
34877;DHT22;21086;44.780;17.194;2024-03-06T12:16:55;27.40;99.90
34877;DHT22;21086;44.780;17.194;2024-03-06T12:19:22;27.40;99.90
34877;DHT22;21086;44.780;17.194;2024-03-06T12:21:50;27.50;99.90
34877;DHT22;21086;44.780;17.194;2024-03-06T12:24:17;27.60;99.90
34877;DHT22;21086;44.780;17.194;2024-03-06T12:27:02;27.90;99.90
34877;DHT22;21086;44.780;17.194;2024-03-06T12:29:31;27.90;99.90
34877;DHT22;21086;44.780;17.194;2024-03-06T12:31:59;27.90;99.90
34877;DHT22;21086;44.780;17.194;2024-03-06T12:34:27;28.30;99.90
34877;DHT22;21086;44.780;17.194;2024-03-06T12:36:54;28.50;99.90
34877;DHT22;21086;44.780;17.194;2024-03-06T12:39:21;28.80;99.90
34877;DHT22;21086;44.780;17.194;2024-03-06T12:41:50;29.00;99.90
34877;DHT22;21086;44.780;17.194;2024-03-06T12:44:21;28.50;99.90
34877;DHT22;21086;44.780;17.194;2024-03-06T12:46:49;27.40;99.90
34877;DHT22;21086;44.780;17.194;2024-03-06T12:49:16;28.40;99.90
34877;DHT22;21086;44.780;17.194;2024-03-06T12:51:45;28.40;99.90
34877;DHT22;21086;44.780;17.194;2024-03-06T12:54:12;28.80;99.90
34877;DHT22;21086;44.780;17.194;2024-03-06T12:56:39;29.00;99.90
34877;DHT22;21086;44.780;17.194;2024-03-06T12:59:08;28.70;99.90
34877;DHT22;21086;44.780;17.194;2024-03-06T13:01:36;28.90;99.90
34877;DHT22;21086;44.780;17.194;2024-03-06T13:04:03;29.00;99.90
34877;DHT22;21086;44.780;17.194;2024-03-06T13:06:34;29.00;99.90
34877;DHT22;21086;44.780;17.194;2024-03-06T13:09:01;28.80;99.90
34877;DHT22;21086;44.780;17.194;2024-03-06T13:11:28;28.70;99.90
34877;DHT22;21086;44.780;17.194;2024-03-06T13:13:55;28.80;99.90
34877;DHT22;21086;44.780;17.194;2024-03-06T13:16:22;28.80;99.90
34877;DHT22;21086;44.780;17.194;2024-03-06T13:18:49;28.20;99.90
34877;DHT22;21086;44.780;17.194;2024-03-06T13:21:20;27.90;99.90
34877;DHT22;21086;44.780;17.194;2024-03-06T13:23:47;27.40;98.90
34877;DHT22;21086;44.780;17.194;2024-03-06T13:26:14;26.80;97.10
34877;DHT22;21086;44.780;17.194;2024-03-06T13:28:41;26.10;95.10
34877;DHT22;21086;44.780;17.194;2024-03-06T13:31:09;25.10;93.10
34877;DHT22;21086;44.780;17.194;2024-03-06T13:33:36;24.30;91.30
34877;DHT22;21086;44.780;17.194;2024-03-06T13:36:03;23.30;89.40
34877;DHT22;21086;44.780;17.194;2024-03-06T13:38:31;22.70;88.10
34877;DHT22;21086;44.780;17.194;2024-03-06T13:40:58;22.10;87.50
34877;DHT22;21086;44.780;17.194;2024-03-06T13:43:29;21.50;86.30
34877;DHT22;21086;44.780;17.194;2024-03-06T13:45:56;20.80;84.90
34877;DHT22;21086;44.780;17.194;2024-03-06T13:48:23;20.30;94.40
34877;DHT22;21086;44.780;17.194;2024-03-06T13:50:50;20.00;85.90
34877;DHT22;21086;44.780;17.194;2024-03-06T13:53:17;19.70;86.30
34877;DHT22;21086;44.780;17.194;2024-03-06T13:55:44;19.40;87.40
34877;DHT22;21086;44.780;17.194;2024-03-06T13:58:11;19.20;89.60
34877;DHT22;21086;44.780;17.194;2024-03-06T14:00:38;19.10;91.10
34877;DHT22;21086;44.780;17.194;2024-03-06T14:03:05;18.90;91.70
34877;DHT22;21086;44.780;17.194;2024-03-06T14:05:32;18.80;92.40
34877;DHT22;21086;44.780;17.194;2024-03-06T14:08:00;18.60;92.50
34877;DHT22;21086;44.780;17.194;2024-03-06T14:10:27;18.40;93.10
34877;DHT22;21086;44.780;17.194;2024-03-06T14:12:54;18.30;94.00
34877;DHT22;21086;44.780;17.194;2024-03-06T14:15:22;18.10;95.00
34877;DHT22;21086;44.780;17.194;2024-03-06T14:17:53;18.10;99.90
34877;DHT22;21086;44.780;17.194;2024-03-06T14:20:22;18.00;96.00
34877;DHT22;21086;44.780;17.194;2024-03-06T14:22:49;17.80;96.80
34877;DHT22;21086;44.780;17.194;2024-03-06T14:25:16;17.70;97.50
34877;DHT22;21086;44.780;17.194;2024-03-06T14:27:46;17.60;98.20
34877;DHT22;21086;44.780;17.194;2024-03-06T14:30:14;17.50;98.50
34877;DHT22;21086;44.780;17.194;2024-03-06T14:32:42;17.20;98.50
34877;DHT22;21086;44.780;17.194;2024-03-06T14:35:10;15.80;96.00
34877;DHT22;21086;44.780;17.194;2024-03-06T14:37:37;14.90;94.70
34877;DHT22;21086;44.780;17.194;2024-03-06T14:40:06;14.50;95.80
34877;DHT22;21086;44.780;17.194;2024-03-06T14:42:36;14.20;96.80
34877;DHT22;21086;44.780;17.194;2024-03-06T14:45:03;14.00;97.90
34877;DHT22;21086;44.780;17.194;2024-03-06T14:47:34;13.70;99.30
34877;DHT22;21086;44.780;17.194;2024-03-06T14:50:03;13.40;99.70
34877;DHT22;21086;44.780;17.194;2024-03-06T14:52:30;13.00;97.10
34877;DHT22;21086;44.780;17.194;2024-03-06T14:54:57;12.90;99.90
34877;DHT22;21086;44.780;17.194;2024-03-06T14:57:24;12.60;99.90
34877;DHT22;21086;44.780;17.194;2024-03-06T14:59:52;12.60;99.90
34877;DHT22;21086;44.780;17.194;2024-03-06T15:02:22;12.40;99.90
34877;DHT22;21086;44.780;17.194;2024-03-06T15:04:49;12.30;99.90
34877;DHT22;21086;44.780;17.194;2024-03-06T15:07:16;12.10;99.90
34877;DHT22;21086;44.780;17.194;2024-03-06T15:09:43;11.90;99.90
34877;DHT22;21086;44.780;17.194;2024-03-06T15:12:10;11.90;99.90
34877;DHT22;21086;44.780;17.194;2024-03-06T15:14:38;11.80;99.90
34877;DHT22;21086;44.780;17.194;2024-03-06T15:17:12;11.60;99.90
34877;DHT22;21086;44.780;17.194;2024-03-06T15:19:40;11.50;99.90
34877;DHT22;21086;44.780;17.194;2024-03-06T15:22:07;11.40;99.90
34877;DHT22;21086;44.780;17.194;2024-03-06T15:24:34;11.20;99.90
34877;DHT22;21086;44.780;17.194;2024-03-06T15:27:01;11.20;99.90
34877;DHT22;21086;44.780;17.194;2024-03-06T15:29:32;11.10;99.90
34877;DHT22;21086;44.780;17.194;2024-03-06T15:31:59;11.10;99.90
34877;DHT22;21086;44.780;17.194;2024-03-06T15:34:26;11.10;99.90
34877;DHT22;21086;44.780;17.194;2024-03-06T15:36:53;11.10;99.90
34877;DHT22;21086;44.780;17.194;2024-03-06T15:39:23;11.10;99.90
34877;DHT22;21086;44.780;17.194;2024-03-06T15:41:50;11.10;99.90
34877;DHT22;21086;44.780;17.194;2024-03-06T15:44:17;11.00;99.90